Pagina principale
METAR-TAF:

METAR-TAF

Aeroporti :

Aeroporto di Belgrado-Nikola Tesla

Belgrado, Serbia

latitudine: 44-49N, longitudine: 020-17E, altezza: 96 m

Osservazione

Il bollettino è stato emesso 37 minuti fa, alle 18:00 UTC
Vento 4 kt da est
Temperature 6°C
Umidità 49%
Pressione 1022 hPa
Visibilità: 8000 m

METAR: LYBE 241800Z 10004KT 8000 NSC 06/M04 Q1022 NOSIG

Ora: 19:37 (18:37 UTC)

Previsione

Il bollettino è stato emesso 1 ora e 37 minuti fa, alle 17:00 UTC
Previsione valida dal 24 alle 18 UTC al 25 alle 18 UTC
Vento 4 kt da nord-est
Visibilità 10 km o più
nessuna nube inferiore a 1500 m e nessun cumulonembo
Evoluzione graduale
dal 24 alle 20 UTC al 24 alle 22 UTC
Vento 10 kt da sud/sud-ovest

TAF: LYBE 241700Z 2418/2518 04004KT CAVOK TX15/2512Z TN06/2505Z BECMG 2420/2422 21010KT

Osservazioni e previsioni meteorologiche di più di 4000 aeroporti (messaggi METAR e TAF).

Le stazioni disponibili sono rappresentate dai dischi gialli e rossi sulla carta.

Puntare il mouse per vedere il nome della stazione.

Clicca sopra per visualizzare le osservazioni e previsioni meteorologiche.

Per cambiare la mappa : fare clic sui pulsanti verdi con una croce nera per ingrandire, il pulsante verde con un trattino per diminuire, o sulla freccia verde per le mappe adiacenti.


METAR-TAF: